Time;durP1;ratioP1;P1;durP2;ratioP2;P2;SDS_P1;SDS_P2;PMS_P1;PMS_P2;Temp;Humidity;BMP_temperature;BMP_pressure;BME280_temperature;BME280_humidity;BME280_pressure;Samples;Min_cycle;Max_cycle;Signal;HPM_P1;HPM_P2
2023/03/22 00:00:38;;;;;;;2.00;1.30;;;23.20;50.90;;;;;;4982848;28;20027;-61
2023/03/22 00:03:05;;;;;;;2.10;1.20;;;23.20;50.90;;;;;;4984500;28;20034;-61
2023/03/22 00:05:31;;;;;;;2.63;1.38;;;23.20;50.90;;;;;;4987093;28;20057;-61
2023/03/22 00:07:57;;;;;;;1.98;1.30;;;23.20;50.90;;;;;;4981974;28;20034;-61
2023/03/22 00:10:24;;;;;;;2.53;1.50;;;23.20;50.90;;;;;;4984230;28;20457;-62
2023/03/22 00:12:51;;;;;;;2.70;1.50;;;23.20;50.80;;;;;;4981971;28;20132;-61
2023/03/22 00:15:17;;;;;;;1.65;1.20;;;23.20;50.90;;;;;;4982431;28;20977;-61
2023/03/22 00:17:45;;;;;;;1.90;1.27;;;23.20;50.90;;;;;;4983639;28;20061;-62
2023/03/22 00:20:11;;;;;;;2.08;1.30;;;23.20;50.90;;;;;;4982926;28;20034;-60
2023/03/22 00:22:38;;;;;;;2.17;1.42;;;23.20;50.90;;;;;;4980645;28;20038;-60
2023/03/22 00:25:05;;;;;;;2.38;1.42;;;23.20;50.90;;;;;;4978790;28;20462;-61
2023/03/22 00:27:31;;;;;;;2.00;1.30;;;23.20;50.90;;;;;;4981513;28;20044;-60
2023/03/22 00:29:57;;;;;;;1.98;1.23;;;23.20;50.80;;;;;;4982010;28;20042;-60
2023/03/22 00:32:22;;;;;;;2.45;1.40;;;23.20;50.80;;;;;;4984742;28;20053;-60
2023/03/22 00:34:48;;;;;;;1.48;1.20;;;23.20;50.90;;;;;;4985360;28;20022;-60
2023/03/22 00:37:15;;;;;;;1.40;1.10;;;23.10;50.80;;;;;;4983478;28;20467;-60
2023/03/22 00:39:41;;;;;;;2.13;1.27;;;23.20;50.80;;;;;;4980266;28;20038;-60
2023/03/22 00:42:07;;;;;;;2.10;1.40;;;23.20;50.80;;;;;;4981507;28;20026;-61
2023/03/22 00:44:33;;;;;;;2.53;1.33;;;23.10;50.80;;;;;;4984686;28;20445;-60
2023/03/22 00:46:59;;;;;;;1.88;1.25;;;23.10;50.80;;;;;;4983065;28;20046;-60
2023/03/22 00:49:24;;;;;;;1.38;1.10;;;23.10;50.80;;;;;;4982258;28;20394;-60
2023/03/22 00:51:50;;;;;;;2.00;1.20;;;23.10;50.80;;;;;;4982308;28;20022;-60
2023/03/22 00:54:16;;;;;;;1.52;1.08;;;23.10;50.80;;;;;;4985165;28;20041;-60
2023/03/22 00:56:44;;;;;;;2.05;1.10;;;23.10;50.80;;;;;;4980909;28;20035;-61
2023/03/22 00:59:10;;;;;;;1.63;1.13;;;23.10;50.80;;;;;;4983247;28;20054;-60
2023/03/22 01:01:36;;;;;;;1.75;1.15;;;23.10;50.80;;;;;;4996882;28;20027;-60
2023/03/22 01:04:03;;;;;;;1.77;1.23;;;23.10;50.80;;;;;;4982071;28;20374;-61
2023/03/22 01:06:30;;;;;;;1.80;1.17;;;23.10;50.80;;;;;;4985946;28;20031;-61
2023/03/22 01:08:56;;;;;;;1.77;1.10;;;23.10;50.80;;;;;;4984550;28;20059;-60
2023/03/22 01:11:23;;;;;;;2.08;1.10;;;23.10;50.80;;;;;;4985151;28;20031;-61
2023/03/22 01:13:48;;;;;;;2.47;1.35;;;23.10;50.80;;;;;;4986077;28;20579;-60
2023/03/22 01:16:15;;;;;;;2.08;1.20;;;23.00;50.80;;;;;;4992481;28;20030;-61
2023/03/22 01:18:41;;;;;;;1.92;1.30;;;23.00;50.80;;;;;;4983918;28;20037;-61
2023/03/22 01:21:07;;;;;;;1.63;1.10;;;23.00;50.80;;;;;;4985554;28;20382;-59
2023/03/22 01:23:33;;;;;;;1.63;1.02;;;23.00;50.80;;;;;;4986833;28;20112;-60
2023/03/22 01:26:00;;;;;;;2.15;1.40;;;23.00;50.80;;;;;;4986307;28;20053;-62
2023/03/22 01:28:26;;;;;;;1.80;1.20;;;23.00;50.70;;;;;;4988570;28;20109;-60
2023/03/22 01:30:52;;;;;;;1.88;1.20;;;23.00;50.70;;;;;;4983378;28;20026;-60
2023/03/22 01:33:17;;;;;;;1.77;1.15;;;23.00;50.80;;;;;;4981339;28;20031;-60
2023/03/22 01:35:43;;;;;;;1.67;1.27;;;23.00;50.80;;;;;;4985525;28;20065;-61
2023/03/22 01:38:09;;;;;;;1.80;1.17;;;23.00;50.70;;;;;;4985481;28;20058;-62
2023/03/22 01:40:35;;;;;;;1.65;1.20;;;23.00;50.70;;;;;;4984617;28;20018;-61
2023/03/22 01:43:01;;;;;;;1.58;1.10;;;23.00;50.70;;;;;;4985193;28;20037;-61
2023/03/22 01:45:35;;;;;;;1.58;1.10;;;23.00;50.80;;;;;;4986429;28;20113;-62
2023/03/22 01:48:15;;;;;;;1.58;1.10;;;23.00;50.70;;;;;;4984055;28;20014;-61
2023/03/22 01:50:44;;;;;;;2.05;1.20;;;23.00;50.80;;;;;;4984509;28;20081;-61
2023/03/22 01:53:12;;;;;;;;;;;23.00;50.80;;;;;;4985619;28;20026;-61
2023/03/22 01:55:38;;;;;;;2.05;1.20;;;23.00;50.80;;;;;;4985076;28;20377;-60
2023/03/22 01:58:05;;;;;;;2.67;1.25;;;23.00;50.70;;;;;;4985893;28;20018;-60
2023/03/22 02:00:32;;;;;;;1.70;1.10;;;23.00;50.70;;;;;;4983808;28;20033;-60
2023/03/22 02:02:58;;;;;;;1.48;1.10;;;23.00;50.80;;;;;;4986551;28;20467;-60
2023/03/22 02:05:25;;;;;;;2.03;1.10;;;23.00;50.80;;;;;;4985830;28;20057;-60
2023/03/22 02:07:51;;;;;;;1.80;1.10;;;23.00;50.80;;;;;;4983253;28;20508;-60
2023/03/22 02:10:21;;;;;;;1.75;1.08;;;23.00;50.80;;;;;;4987300;28;20046;-61
2023/03/22 02:13:05;;;;;;;1.45;1.00;;;22.90;50.70;;;;;;4983441;28;20041;-60
2023/03/22 02:15:36;;;;;;;1.63;1.10;;;22.90;50.70;;;;;;4985050;28;20027;-60
2023/03/22 02:18:18;;;;;;;1.63;1.10;;;22.90;50.70;;;;;;4984630;28;20418;-60
2023/03/22 02:20:59;;;;;;;1.83;1.20;;;22.90;50.70;;;;;;4984438;28;20030;-60
2023/03/22 02:23:42;;;;;;;1.63;1.08;;;22.90;50.70;;;;;;4985174;28;20084;-60
2023/03/22 02:26:27;;;;;;;1.75;1.13;;;22.90;50.70;;;;;;4983047;28;20045;-61
2023/03/22 02:29:18;;;;;;;2.00;1.20;;;22.90;50.70;;;;;;4985343;28;20030;-61
2023/03/22 02:32:01;;;;;;;2.00;1.20;;;22.90;50.70;;;;;;4986936;28;20037;-61
2023/03/22 02:34:43;;;;;;;1.70;1.20;;;22.90;50.70;;;;;;4987018;28;20509;-61
2023/03/22 02:37:27;;;;;;;1.40;1.00;;;22.90;50.70;;;;;;4984246;28;20078;-61
2023/03/22 02:40:10;;;;;;;1.15;0.90;;;22.90;50.70;;;;;;4984836;28;20046;-61
2023/03/22 02:43:07;;;;;;;1.77;1.13;;;22.90;50.70;;;;;;4983540;28;20031;-61
2023/03/22 02:46:03;;;;;;;1.90;1.00;;;22.90;50.70;;;;;;4984031;28;20026;-60
2023/03/22 02:48:43;;;;;;;1.58;1.05;;;22.90;50.70;;;;;;4985887;28;20467;-60
2023/03/22 02:51:18;;;;;;;1.52;1.10;;;22.90;50.70;;;;;;4983048;28;20084;-61
2023/03/22 02:54:17;;;;;;;1.30;1.00;;;22.90;50.80;;;;;;4984904;28;20787;-61
2023/03/22 02:56:52;;;;;;;;;;;22.90;50.70;;;;;;4983251;28;20042;-61
2023/03/22 02:59:20;;;;;;;1.75;1.00;;;22.90;50.70;;;;;;4986037;28;19960;-60
2023/03/22 03:01:56;;;;;;;1.35;1.00;;;22.90;50.70;;;;;;4983498;28;20446;-61
2023/03/22 03:04:29;;;;;;;1.77;1.00;;;22.80;50.70;;;;;;4985542;28;20559;-61
2023/03/22 03:07:01;;;;;;;1.20;0.90;;;22.90;50.70;;;;;;4981915;28;20026;-61
2023/03/22 03:09:28;;;;;;;1.48;0.93;;;22.80;50.70;;;;;;4983948;28;20478;-61
2023/03/22 03:11:54;;;;;;;1.55;0.93;;;22.90;50.70;;;;;;4985748;28;20041;-61
2023/03/22 03:14:25;;;;;;;1.80;1.00;;;22.80;50.70;;;;;;4987454;28;20054;-61
2023/03/22 03:17:35;;;;;;;1.60;0.93;;;22.80;50.70;;;;;;4984922;28;20038;-61
2023/03/22 03:20:00;;;;;;;;;;;22.80;50.70;;;;;;4981972;28;20470;-60
2023/03/22 03:22:37;;;;;;;1.50;1.08;;;22.80;50.70;;;;;;4986298;28;20005;-60
2023/03/22 03:25:31;;;;;;;1.27;1.02;;;22.80;50.70;;;;;;4988303;28;20041;-61
2023/03/22 03:27:58;;;;;;;1.60;1.10;;;22.80;50.70;;;;;;4983143;28;20114;-60
2023/03/22 03:30:39;;;;;;;1.17;0.90;;;22.80;50.70;;;;;;4985353;28;20060;-61
2023/03/22 03:33:10;;;;;;;1.10;0.82;;;22.80;50.70;;;;;;4986863;28;20509;-60
2023/03/22 03:35:42;;;;;;;1.30;0.85;;;22.80;50.70;;;;;;4983153;28;20022;-60
2023/03/22 03:38:13;;;;;;;1.40;0.90;;;22.70;50.70;;;;;;4982335;28;20030;-60
2023/03/22 03:40:43;;;;;;;1.40;1.00;;;22.70;50.70;;;;;;4982582;28;20022;-61
2023/03/22 03:43:11;;;;;;;0.90;0.80;;;22.70;50.70;;;;;;4983490;28;20030;-60
2023/03/22 03:45:38;;;;;;;0.95;0.80;;;22.70;50.70;;;;;;4984712;28;20095;-59
2023/03/22 03:48:08;;;;;;;1.30;0.80;;;22.70;50.70;;;;;;4981622;28;20023;-60
2023/03/22 03:50:34;;;;;;;1.40;1.10;;;22.70;50.70;;;;;;4979702;28;20038;-60
2023/03/22 03:53:01;;;;;;;1.33;0.90;;;22.70;50.70;;;;;;4981818;28;20027;-60
2023/03/22 03:55:28;;;;;;;1.38;0.93;;;22.80;50.80;;;;;;4982060;28;20386;-61
2023/03/22 03:57:54;;;;;;;1.48;0.90;;;22.70;50.70;;;;;;4986317;28;20023;-60
2023/03/22 04:00:19;;;;;;;1.08;0.90;;;22.70;50.70;;;;;;4984780;28;20030;-61
2023/03/22 04:02:45;;;;;;;1.30;0.88;;;22.70;50.70;;;;;;4984686;28;20041;-60
2023/03/22 04:05:12;;;;;;;1.20;0.85;;;22.70;50.70;;;;;;4981453;28;20045;-60
2023/03/22 04:07:38;;;;;;;1.48;1.00;;;22.70;50.70;;;;;;4981270;28;20542;-60
2023/03/22 04:10:05;;;;;;;0.82;0.70;;;22.70;50.70;;;;;;4983176;28;20534;-57
2023/03/22 04:12:31;;;;;;;1.02;0.90;;;22.70;50.70;;;;;;4983404;28;20375;-61
2023/03/22 04:14:57;;;;;;;1.13;0.80;;;22.70;50.70;;;;;;4984850;28;20467;-60
2023/03/22 04:17:23;;;;;;;1.33;0.80;;;22.70;50.70;;;;;;4984451;28;20111;-61
2023/03/22 04:19:55;;;;;;;1.45;1.00;;;22.70;50.70;;;;;;4985523;28;20034;-60
2023/03/22 04:22:21;;;;;;;1.02;0.88;;;22.70;50.70;;;;;;4982597;28;20512;-60
2023/03/22 04:24:49;;;;;;;1.42;1.10;;;22.70;51.20;;;;;;4983641;28;20505;-60
2023/03/22 04:27:18;;;;;;;1.27;0.90;;;22.70;50.70;;;;;;4980005;28;20049;-61
2023/03/22 04:29:47;;;;;;;0.98;0.80;;;22.70;50.70;;;;;;4984246;28;20114;-60
2023/03/22 04:32:23;;;;;;;0.77;0.77;;;22.70;50.70;;;;;;4982985;28;20487;-60
2023/03/22 04:34:50;;;;;;;1.33;0.90;;;22.70;50.70;;;;;;4982407;28;20599;-60
2023/03/22 04:37:16;;;;;;;1.25;0.90;;;22.70;50.80;;;;;;4979761;28;20022;-61
2023/03/22 04:39:44;;;;;;;1.20;0.80;;;22.60;51.20;;;;;;4980402;28;20126;-60
2023/03/22 04:42:10;;;;;;;1.30;0.90;;;22.70;51.30;;;;;;4982874;28;20030;-60
2023/03/22 04:44:35;;;;;;;1.05;0.90;;;22.70;50.70;;;;;;4983910;28;20530;-60
2023/03/22 04:47:01;;;;;;;1.30;1.00;;;22.70;50.70;;;;;;4985471;28;20030;-61
2023/03/22 04:49:27;;;;;;;1.08;0.80;;;22.60;50.70;;;;;;4983900;28;20164;-60
2023/03/22 04:51:54;;;;;;;1.30;0.98;;;22.70;50.70;;;;;;4981662;28;20022;-60
2023/03/22 04:54:20;;;;;;;1.33;0.90;;;22.60;51.20;;;;;;4980904;28;20036;-59
2023/03/22 04:56:46;;;;;;;1.00;0.90;;;22.60;50.70;;;;;;4980393;28;20034;-60
2023/03/22 04:59:11;;;;;;;1.15;0.82;;;22.60;50.70;;;;;;4984137;28;20478;-60
2023/03/22 05:01:37;;;;;;;1.13;0.75;;;22.60;50.70;;;;;;4982352;28;20033;-60
2023/03/22 05:04:03;;;;;;;1.00;0.80;;;22.60;50.70;;;;;;4982904;28;20022;-61
2023/03/22 05:06:31;;;;;;;1.67;1.15;;;22.60;50.70;;;;;;4983019;28;20031;-60
2023/03/22 05:09:00;;;;;;;0.98;0.82;;;22.60;50.70;;;;;;4981572;28;20038;-60
2023/03/22 05:11:27;;;;;;;0.90;0.80;;;22.60;50.70;;;;;;4981559;28;20122;-60
2023/03/22 05:13:56;;;;;;;1.35;0.90;;;22.60;50.70;;;;;;4985481;28;20038;-61
2023/03/22 05:16:22;;;;;;;1.45;0.80;;;22.60;51.30;;;;;;4984940;28;20066;-60
2023/03/22 05:18:53;;;;;;;1.10;0.88;;;22.60;50.80;;;;;;4983205;28;20049;-60
2023/03/22 05:21:20;;;;;;;1.23;0.80;;;22.60;50.80;;;;;;4980214;28;20066;-61
2023/03/22 05:23:47;;;;;;;1.10;0.90;;;22.60;50.80;;;;;;4984326;28;20371;-61
2023/03/22 05:26:17;;;;;;;1.00;0.82;;;22.60;50.80;;;;;;4980210;28;20514;-61
2023/03/22 05:28:43;;;;;;;1.40;1.00;;;22.60;50.80;;;;;;4983978;28;20467;-61
2023/03/22 05:31:10;;;;;;;1.38;0.90;;;22.60;50.80;;;;;;4981761;28;20069;-61
2023/03/22 05:33:36;;;;;;;1.38;1.00;;;22.60;50.80;;;;;;4978979;28;20029;-61
2023/03/22 05:36:01;;;;;;;1.20;0.82;;;22.60;50.80;;;;;;4981981;28;20030;-61
2023/03/22 05:38:27;;;;;;;1.30;0.90;;;22.60;50.80;;;;;;4980411;28;20454;-61
2023/03/22 05:40:53;;;;;;;1.00;0.90;;;22.60;50.80;;;;;;4981456;28;20030;-61
2023/03/22 05:43:19;;;;;;;1.33;0.93;;;22.60;50.80;;;;;;4983707;28;20022;-61
2023/03/22 05:45:45;;;;;;;1.30;0.98;;;22.50;50.80;;;;;;4979224;28;20030;-61
2023/03/22 05:48:10;;;;;;;1.40;0.90;;;22.60;50.80;;;;;;4980766;28;20033;-61
2023/03/22 05:50:36;;;;;;;1.30;0.90;;;22.50;50.70;;;;;;4982556;28;20038;-61
2023/03/22 05:53:02;;;;;;;1.27;0.90;;;22.50;50.80;;;;;;4981768;28;20077;-61
2023/03/22 05:55:30;;;;;;;1.30;0.90;;;22.50;50.80;;;;;;4983675;28;20023;-62
2023/03/22 05:58:00;;;;;;;1.20;0.90;;;22.50;50.80;;;;;;4986017;28;20054;-61
2023/03/22 06:00:27;;;;;;;1.80;1.00;;;22.50;50.80;;;;;;4986761;28;20410;-62
2023/03/22 06:02:55;;;;;;;1.25;1.02;;;22.50;50.80;;;;;;4986597;28;20495;-62
2023/03/22 06:05:21;;;;;;;1.23;0.90;;;22.50;50.80;;;;;;4984682;28;20069;-62
2023/03/22 06:07:46;;;;;;;1.42;1.00;;;22.50;50.80;;;;;;4986158;28;20037;-59
2023/03/22 06:10:14;;;;;;;1.33;0.90;;;22.60;51.10;;;;;;4986660;28;20027;-62
2023/03/22 06:12:40;;;;;;;1.40;0.90;;;22.50;51.00;;;;;;4985288;28;20031;-61
2023/03/22 06:15:06;;;;;;;1.25;0.98;;;22.60;51.10;;;;;;4987531;28;20031;-62
2023/03/22 06:17:32;;;;;;;1.42;0.80;;;22.60;51.10;;;;;;4987308;28;20057;-62
2023/03/22 06:19:58;;;;;;;1.60;0.90;;;22.60;51.70;;;;;;4983444;28;20606;-62
2023/03/22 06:22:24;;;;;;;1.27;0.80;;;22.60;51.10;;;;;;4987456;28;20065;-62
2023/03/22 06:24:50;;;;;;;1.20;0.85;;;22.60;51.10;;;;;;4982082;28;20023;-62
2023/03/22 06:27:16;;;;;;;2.55;0.80;;;22.70;51.10;;;;;;4981325;28;20038;-63
2023/03/22 06:29:43;;;;;;;0.98;0.80;;;22.60;51.50;;;;;;4983543;28;20060;-62
2023/03/22 06:32:09;;;;;;;2.03;0.88;;;22.70;51.00;;;;;;4984745;28;20054;-62
2023/03/22 06:34:35;;;;;;;1.45;1.00;;;22.70;51.00;;;;;;4983486;28;20026;-61
2023/03/22 06:37:00;;;;;;;1.63;1.08;;;22.70;50.90;;;;;;4984246;28;20029;-62
2023/03/22 06:39:26;;;;;;;1.33;0.80;;;22.80;50.90;;;;;;4984174;28;20026;-62
2023/03/22 06:41:52;;;;;;;1.15;0.80;;;22.80;50.80;;;;;;4984733;28;20034;-62
2023/03/22 06:44:17;;;;;;;1.35;0.82;;;22.80;50.70;;;;;;4984427;28;20035;-62
2023/03/22 06:46:43;;;;;;;1.42;0.90;;;22.80;50.70;;;;;;4983071;28;20129;-62
2023/03/22 06:49:09;;;;;;;1.10;0.80;;;22.90;50.70;;;;;;4989146;28;20018;-62
2023/03/22 06:51:35;;;;;;;1.50;0.90;;;22.90;50.70;;;;;;4984079;28;20085;-62
2023/03/22 06:54:01;;;;;;;1.80;0.88;;;22.90;50.60;;;;;;4984776;28;20033;-62
2023/03/22 06:56:26;;;;;;;1.88;1.00;;;23.00;50.60;;;;;;4984927;28;20026;-61
2023/03/22 06:58:53;;;;;;;2.13;1.10;;;23.00;50.60;;;;;;4982939;28;20041;-62
2023/03/22 07:01:22;;;;;;;1.80;0.90;;;23.00;50.50;;;;;;4989825;28;20034;-61
2023/03/22 07:03:47;;;;;;;1.77;1.10;;;23.00;50.50;;;;;;4983321;28;20030;-62
2023/03/22 07:06:13;;;;;;;1.58;1.10;;;23.00;50.40;;;;;;4977924;28;20113;-61
2023/03/22 07:08:39;;;;;;;2.88;1.00;;;23.10;50.40;;;;;;4978679;28;20386;-62
2023/03/22 07:11:05;;;;;;;1.88;1.10;;;23.10;50.90;;;;;;4985102;28;20037;-61
2023/03/22 07:13:31;;;;;;;2.15;1.10;;;23.10;50.40;;;;;;4984628;28;20131;-62
2023/03/22 07:15:58;;;;;;;1.63;1.00;;;23.20;50.30;;;;;;4983564;28;20097;-62
2023/03/22 07:18:25;;;;;;;2.15;1.10;;;23.20;50.30;;;;;;4983516;28;20502;-62
2023/03/22 07:20:50;;;;;;;1.90;1.20;;;23.20;50.30;;;;;;4982459;28;20367;-61
2023/03/22 07:23:16;;;;;;;1.33;0.98;;;23.20;50.30;;;;;;4982113;28;20097;-62
2023/03/22 07:25:43;;;;;;;1.55;1.10;;;23.20;50.70;;;;;;4982559;28;20093;-61
2023/03/22 07:28:10;;;;;;;1.30;0.90;;;23.20;50.20;;;;;;4983485;28;20030;-62
2023/03/22 07:30:36;;;;;;;1.55;1.00;;;23.20;50.30;;;;;;4982069;28;20558;-62
2023/03/22 07:33:04;;;;;;;1.38;0.88;;;23.30;50.30;;;;;;4984261;28;20077;-61
2023/03/22 07:35:30;;;;;;;1.90;1.00;;;23.30;50.30;;;;;;4982744;28;20080;-62
2023/03/22 07:37:55;;;;;;;2.83;1.00;;;23.30;50.80;;;;;;4982439;28;20031;-62
2023/03/22 07:40:22;;;;;;;1.98;1.10;;;23.40;50.20;;;;;;4981311;28;20573;-61
2023/03/22 07:42:48;;;;;;;2.03;0.98;;;23.40;50.20;;;;;;4983685;28;20520;-62
2023/03/22 07:45:15;;;;;;;2.28;1.13;;;23.40;50.20;;;;;;4984183;28;20038;-62
2023/03/22 07:47:41;;;;;;;1.70;1.00;;;23.40;50.20;;;;;;4985099;28;20046;-62
2023/03/22 07:50:10;;;;;;;1.70;1.00;;;23.40;50.10;;;;;;4982645;28;20027;-62
2023/03/22 07:52:36;;;;;;;1.65;1.08;;;23.40;50.10;;;;;;4983394;28;20070;-62
2023/03/22 07:55:01;;;;;;;1.48;1.00;;;23.50;50.10;;;;;;4981342;28;20067;-62
2023/03/22 07:57:27;;;;;;;1.98;1.13;;;23.50;50.10;;;;;;4982933;28;20463;-62
2023/03/22 07:59:52;;;;;;;1.80;0.95;;;23.50;50.10;;;;;;4983206;28;20037;-62
2023/03/22 08:02:18;;;;;;;2.38;1.00;;;23.50;50.00;;;;;;4982753;28;20042;-61
2023/03/22 08:04:44;;;;;;;1.80;1.20;;;23.50;50.10;;;;;;4982938;28;20128;-62
2023/03/22 08:07:10;;;;;;;2.33;1.17;;;23.60;50.00;;;;;;4983724;28;20111;-62
2023/03/22 08:09:36;;;;;;;2.20;1.30;;;23.60;50.00;;;;;;4984692;28;20443;-62
2023/03/22 08:12:02;;;;;;;2.05;1.10;;;23.60;49.90;;;;;;4983120;28;20036;-62
2023/03/22 08:14:28;;;;;;;2.22;1.25;;;23.60;49.90;;;;;;4982786;28;20254;-62
2023/03/22 08:16:53;;;;;;;2.28;1.25;;;23.60;49.90;;;;;;4980101;28;20521;-62
2023/03/22 08:19:19;;;;;;;2.00;1.10;;;23.70;49.90;;;;;;4983174;28;20039;-62
2023/03/22 08:21:45;;;;;;;2.78;1.17;;;23.70;49.90;;;;;;4985868;28;20050;-62
2023/03/22 08:24:11;;;;;;;1.42;1.00;;;23.70;49.80;;;;;;4982564;28;20118;-62
2023/03/22 08:26:38;;;;;;;2.28;1.20;;;23.70;49.80;;;;;;4979251;28;20456;-62
2023/03/22 08:29:03;;;;;;;1.63;1.10;;;23.70;49.80;;;;;;4980025;28;20391;-62
2023/03/22 08:31:30;;;;;;;3.42;1.27;;;23.70;49.70;;;;;;4982289;28;20034;-62
2023/03/22 08:33:55;;;;;;;1.80;1.05;;;23.70;49.70;;;;;;4985357;28;20034;-62
2023/03/22 08:36:21;;;;;;;2.10;1.30;;;23.80;49.70;;;;;;4985843;28;20022;-62
2023/03/22 08:38:47;;;;;;;2.05;1.10;;;23.80;49.70;;;;;;4981124;28;20487;-62
2023/03/22 08:41:14;;;;;;;1.75;0.80;;;23.80;49.70;;;;;;4982912;28;20054;-62
2023/03/22 08:43:40;;;;;;;2.63;1.02;;;23.80;49.80;;;;;;4981960;28;20474;-63
2023/03/22 08:46:06;;;;;;;1.80;0.95;;;23.80;49.80;;;;;;4984286;28;20026;-62
2023/03/22 08:48:34;;;;;;;2.00;1.00;;;23.80;49.70;;;;;;4979466;28;20030;-62
2023/03/22 08:51:01;;;;;;;2.20;1.15;;;23.80;49.70;;;;;;4980450;28;20463;-63
2023/03/22 08:53:26;;;;;;;1.98;0.98;;;23.80;50.20;;;;;;4981793;28;20052;-63
2023/03/22 08:55:52;;;;;;;1.38;0.90;;;23.80;49.70;;;;;;4987343;28;20122;-62
2023/03/22 08:58:19;;;;;;;2.53;1.52;;;23.80;49.70;;;;;;4981974;28;20034;-62
2023/03/22 09:00:45;;;;;;;1.85;0.95;;;23.80;49.70;;;;;;4981808;28;20113;-61
2023/03/22 09:03:11;;;;;;;1.75;1.02;;;23.90;49.70;;;;;;4983230;28;20026;-62
2023/03/22 09:05:37;;;;;;;2.38;1.10;;;23.90;49.70;;;;;;4981652;28;20548;-62
2023/03/22 09:08:04;;;;;;;1.35;0.90;;;23.90;49.70;;;;;;4981576;28;20141;-62
2023/03/22 09:10:30;;;;;;;1.48;0.98;;;23.90;49.70;;;;;;4997449;28;20070;-62
2023/03/22 09:12:56;;;;;;;1.83;1.10;;;23.90;49.70;;;;;;4983401;28;20027;-62
2023/03/22 09:15:22;;;;;;;1.65;1.00;;;23.90;49.70;;;;;;4980034;28;20410;-62
2023/03/22 09:17:47;;;;;;;2.17;1.00;;;23.90;49.70;;;;;;4983563;28;20022;-63
2023/03/22 09:20:13;;;;;;;2.08;1.20;;;24.00;49.80;;;;;;4982218;28;20041;-62
2023/03/22 09:22:39;;;;;;;2.08;1.17;;;24.00;49.70;;;;;;4981551;28;20030;-62
2023/03/22 09:25:06;;;;;;;1.90;1.05;;;24.00;49.70;;;;;;4982711;28;20439;-63
2023/03/22 09:27:32;;;;;;;1.52;1.05;;;24.00;49.60;;;;;;4982333;28;20058;-62
2023/03/22 09:29:57;;;;;;;1.85;1.20;;;24.00;49.60;;;;;;4985270;28;20133;-62
2023/03/22 09:32:23;;;;;;;2.00;1.00;;;24.10;49.60;;;;;;4985732;28;20026;-62
2023/03/22 09:34:49;;;;;;;1.45;1.00;;;24.10;49.60;;;;;;4989063;28;20022;-63
2023/03/22 09:37:14;;;;;;;1.83;1.20;;;24.10;49.60;;;;;;4987822;28;20425;-62
2023/03/22 09:39:43;;;;;;;2.85;1.20;;;24.10;49.60;;;;;;4983076;28;20502;-63
2023/03/22 09:42:43;;;;;;;1.60;1.05;;;24.10;49.60;;;;;;4985436;28;20106;-62
2023/03/22 09:45:15;;;;;;;1.83;0.90;;;24.20;49.60;;;;;;4985483;28;20042;-62
2023/03/22 09:47:45;;;;;;;1.83;1.00;;;24.10;49.50;;;;;;4987956;28;20091;-62
2023/03/22 09:50:32;;;;;;;2.13;1.20;;;24.20;49.50;;;;;;4987294;28;20084;-62
2023/03/22 09:52:59;;;;;;;1.70;1.10;;;24.20;49.40;;;;;;4986878;28;20497;-62
2023/03/22 09:55:37;;;;;;;1.50;1.02;;;24.20;49.40;;;;;;4985773;28;20034;-62
2023/03/22 09:58:27;;;;;;;1.57;0.90;;;24.20;49.40;;;;;;4984488;28;20475;-62
2023/03/22 10:01:09;;;;;;;1.55;1.00;;;24.20;49.40;;;;;;4984921;28;20106;-62
2023/03/22 10:03:35;;;;;;;1.92;0.90;;;24.30;49.50;;;;;;4986518;28;20462;-62
2023/03/22 10:06:16;;;;;;;1.83;0.90;;;24.30;49.50;;;;;;4987565;28;20054;-60
2023/03/22 10:08:42;;;;;;;1.27;0.90;;;24.30;49.40;;;;;;4983224;28;20117;-60
2023/03/22 10:11:29;;;;;;;2.03;0.90;;;24.30;49.50;;;;;;4984022;28;20118;-60
2023/03/22 10:13:55;;;;;;;1.80;1.10;;;24.30;49.50;;;;;;4986046;28;20030;-59
2023/03/22 10:16:28;;;;;;;1.73;1.10;;;24.30;49.50;;;;;;4984668;28;20498;-60
2023/03/22 10:19:17;;;;;;;1.55;1.00;;;24.30;49.50;;;;;;4986063;28;20030;-60
2023/03/22 10:21:45;;;;;;;1.27;0.90;;;24.40;49.50;;;;;;4981231;28;20134;-59
2023/03/22 10:24:19;;;;;;;1.48;0.95;;;24.40;49.40;;;;;;4982516;28;20034;-60
2023/03/22 10:26:46;;;;;;;1.20;0.80;;;24.40;49.40;;;;;;4983692;28;20038;-60
2023/03/22 10:29:38;;;;;;;1.45;1.00;;;24.40;49.40;;;;;;4985016;28;20487;-60
2023/03/22 10:32:21;;;;;;;1.63;0.98;;;24.40;49.40;;;;;;4985673;28;20378;-63
2023/03/22 10:34:48;;;;;;;1.88;1.05;;;24.50;49.40;;;;;;4983781;28;20037;-61
2023/03/22 10:37:17;;;;;;;1.42;0.90;;;24.50;49.80;;;;;;4986256;28;20045;-62
2023/03/22 10:39:49;;;;;;;1.10;0.90;;;24.50;49.70;;;;;;4986880;28;20034;-61
2023/03/22 10:42:22;;;;;;;1.10;0.90;;;24.50;49.50;;;;;;4984623;28;20034;-62
2023/03/22 10:45:01;;;;;;;1.23;0.75;;;24.50;49.40;;;;;;4983355;28;20022;-61
2023/03/22 10:47:45;;;;;;;1.48;0.85;;;24.50;49.40;;;;;;4986559;28;20054;-62
2023/03/22 10:50:19;;;;;;;1.15;0.80;;;24.60;49.30;;;;;;4987053;28;20035;-62
2023/03/22 10:53:00;;;;;;;0.95;0.82;;;24.60;49.40;;;;;;4982053;28;20029;-61
2023/03/22 10:55:26;;;;;;;1.77;0.93;;;24.60;49.30;;;;;;4989102;28;20486;-61
2023/03/22 10:58:11;;;;;;;1.50;0.90;;;24.60;49.20;;;;;;4987474;28;20026;-61
2023/03/22 11:00:37;;;;;;;1.13;1.00;;;24.60;49.20;;;;;;4982147;28;20104;-62
2023/03/22 11:03:05;;;;;;;1.67;0.90;;;24.70;49.20;;;;;;4983326;28;20031;-62
2023/03/22 11:05:30;;;;;;;1.75;1.10;;;24.70;49.10;;;;;;4985960;28;20538;-61
2023/03/22 11:07:57;;;;;;;1.10;0.80;;;24.70;49.10;;;;;;4986149;28;20168;-61
2023/03/22 11:10:26;;;;;;;1.40;1.00;;;24.70;49.10;;;;;;4982655;28;20433;-61
2023/03/22 11:13:07;;;;;;;1.55;0.90;;;24.70;49.10;;;;;;4983869;28;20035;-62
2023/03/22 11:15:48;;;;;;;1.23;0.88;;;24.70;49.00;;;;;;4982497;28;20065;-61
2023/03/22 11:18:16;;;;;;;1.13;0.70;;;24.70;49.00;;;;;;4984678;28;20103;-62
2023/03/22 11:20:52;;;;;;;1.25;0.80;;;24.80;48.90;;;;;;4982971;28;20030;-61
2023/03/22 11:23:19;;;;;;;1.10;0.80;;;24.80;49.20;;;;;;4983102;28;20050;-62
2023/03/22 11:25:49;;;;;;;1.38;0.85;;;24.80;49.10;;;;;;4982145;28;20490;-61
2023/03/22 11:28:33;;;;;;;1.55;0.90;;;24.80;49.10;;;;;;4983829;28;20420;-62
2023/03/22 11:31:08;;;;;;;1.65;1.00;;;24.80;49.00;;;;;;4983596;28;20031;-62
2023/03/22 11:33:35;;;;;;;1.20;0.90;;;24.80;49.00;;;;;;4982632;28;20034;-62
2023/03/22 11:36:23;;;;;;;2.15;0.90;;;24.80;49.00;;;;;;4980854;28;20050;-62
2023/03/22 11:38:59;;;;;;;1.52;0.88;;;24.80;48.90;;;;;;4984438;28;20069;-62
2023/03/22 11:41:27;;;;;;;1.50;0.90;;;24.80;48.80;;;;;;4982547;28;20038;-61
2023/03/22 11:43:56;;;;;;;1.35;0.90;;;24.80;49.00;;;;;;4982263;28;20031;-62
2023/03/22 11:46:23;;;;;;;1.30;0.90;;;24.80;48.90;;;;;;4981872;28;20038;-62
2023/03/22 11:48:51;;;;;;;2.42;0.90;;;24.80;48.80;;;;;;4984993;28;20034;-61
2023/03/22 11:51:37;;;;;;;1.45;0.93;;;24.80;48.90;;;;;;4982667;28;20421;-62
2023/03/22 11:54:30;;;;;;;1.30;0.98;;;24.80;49.00;;;;;;4984982;28;20081;-62
2023/03/22 11:57:03;;;;;;;1.45;0.90;;;24.80;48.90;;;;;;4985285;28;20034;-61
2023/03/22 11:59:48;;;;;;;1.88;1.00;;;24.80;48.70;;;;;;4984502;28;20160;-61
2023/03/22 12:02:22;;;;;;;1.30;0.80;;;24.80;48.70;;;;;;4983373;28;20065;-62
2023/03/22 12:04:52;;;;;;;1.10;0.73;;;24.80;48.70;;;;;;4980930;28;20534;-61
2023/03/22 12:07:20;;;;;;;1.17;0.90;;;24.80;48.60;;;;;;4983259;28;20026;-61
2023/03/22 12:09:56;;;;;;;0.80;0.77;;;24.80;48.70;;;;;;4983310;28;20338;-61
2023/03/22 12:12:27;;;;;;;1.27;0.80;;;24.80;48.70;;;;;;4983478;28;20165;-61
2023/03/22 12:15:18;;;;;;;1.00;0.68;;;24.80;48.70;;;;;;4981519;28;20458;-61
2023/03/22 12:17:57;;;;;;;2.03;0.70;;;24.90;48.40;;;;;;4981068;28;20019;-61
2023/03/22 12:20:42;;;;;;;0.73;0.65;;;24.90;48.80;;;;;;4984233;28;20041;-61
2023/03/22 12:23:17;;;;;;;1.52;0.80;;;24.90;48.80;;;;;;4979584;28;20490;-61
2023/03/22 12:26:00;;;;;;;1.25;0.82;;;24.90;48.80;;;;;;4980788;28;20088;-61
2023/03/22 12:29:02;;;;;;;1.10;0.70;;;24.90;48.80;;;;;;4981830;28;20046;-61
2023/03/22 12:31:31;;;;;;;1.00;0.70;;;24.90;49.30;;;;;;4983931;28;20584;-62
2023/03/22 12:34:05;;;;;;;0.95;0.80;;;24.90;48.80;;;;;;4982705;28;20485;-61
2023/03/22 12:36:41;;;;;;;0.93;0.70;;;24.90;48.70;;;;;;4982798;28;20033;-62
2023/03/22 12:39:12;;;;;;;1.23;0.93;;;25.00;48.80;;;;;;4980966;28;20117;-62
2023/03/22 12:41:41;;;;;;;1.20;0.80;;;25.00;49.30;;;;;;4982495;28;20030;-62
2023/03/22 12:44:21;;;;;;;1.48;0.90;;;25.00;48.70;;;;;;4981783;28;20458;-62
2023/03/22 12:46:57;;;;;;;1.20;0.70;;;25.00;48.70;;;;;;4984859;28;20089;-61
2023/03/22 12:49:59;;;;;;;1.15;0.80;;;25.00;48.70;;;;;;4983433;28;20066;-62
2023/03/22 12:52:53;;;;;;;1.17;0.63;;;25.10;48.80;;;;;;4981601;28;20098;-61
2023/03/22 12:55:27;;;;;;;0.80;0.70;;;25.00;48.70;;;;;;4981367;28;20050;-60
2023/03/22 12:57:54;;;;;;;0.90;0.70;;;25.10;48.80;;;;;;4996971;28;20019;-62
2023/03/22 13:00:51;;;;;;;1.00;0.80;;;25.10;48.80;;;;;;4983818;28;20034;-62
2023/03/22 13:03:21;;;;;;;1.90;0.70;;;25.10;48.60;;;;;;4984777;28;20050;-62